Time;durP1;ratioP1;P1;durP2;ratioP2;P2;SDS_P1;SDS_P2;PMS_P1;PMS_P2;Temp;Humidity;BMP_temperature;BMP_pressure;BME280_temperature;BME280_humidity;BME280_pressure;Samples;Min_cycle;Max_cycle;Signal;HPM_P1;HPM_P2
2022/12/05 00:00:36;;;;;;;;;;;16.80;41.70;;;;;;8330291;28;19921;-44
2022/12/05 00:04:36;;;;;;;;;;;16.80;41.70;;;;;;8329769;28;19918;-44
2022/12/05 00:08:37;;;;;;;;;;;16.80;41.70;;;;;;8330409;28;19929;-44
2022/12/05 00:12:37;;;;;;;;;;;16.80;41.70;;;;;;8330181;28;20374;-44
2022/12/05 00:16:39;;;;;;;;;;;16.80;41.70;;;;;;8329667;28;19963;-44
2022/12/05 00:20:46;;;;;;;;;;;16.80;41.70;;;;;;8329935;28;20436;-45
2022/12/05 00:24:47;;;;;;;;;;;16.80;41.80;;;;;;8329547;28;19917;-44
2022/12/05 00:28:47;;;;;;;;;;;16.80;41.70;;;;;;8329974;28;19932;-44
2022/12/05 00:32:48;;;;;;;;;;;16.80;41.70;;;;;;8329808;28;19920;-44
2022/12/05 00:36:48;;;;;;;;;;;16.80;41.70;;;;;;8332999;28;19940;-45
2022/12/05 00:40:49;;;;;;;;;;;16.80;41.70;;;;;;8336232;28;20004;-45
2022/12/05 00:44:49;;;;;;;;;;;16.80;41.70;;;;;;8335968;28;19976;-44
2022/12/05 00:48:53;;;;;;;;;;;16.80;41.80;;;;;;8335780;28;20358;-45
2022/12/05 00:52:53;;;;;;;;;;;16.80;41.70;;;;;;8335990;28;19917;-44
2022/12/05 00:56:55;;;;;;;;;;;16.80;41.80;;;;;;8335637;28;19955;-45
2022/12/05 01:00:55;;;;;;;;;;;16.80;41.70;;;;;;8335175;28;20455;-44
2022/12/05 01:04:56;;;;;;;;;;;16.80;41.70;;;;;;8335903;28;19971;-44
2022/12/05 01:08:56;;;;;;;;;;;16.80;41.70;;;;;;8335431;28;19925;-44
2022/12/05 01:12:57;;;;;;;;;;;16.80;41.70;;;;;;8334798;28;19952;-44
2022/12/05 01:16:58;;;;;;;;;;;16.80;41.80;;;;;;8335404;28;19921;-45
2022/12/05 01:20:58;;;;;;;;;;;16.80;41.80;;;;;;8334988;28;19924;-44
2022/12/05 01:24:59;;;;;;;;;;;16.80;41.70;;;;;;8334350;28;19929;-44
2022/12/05 01:28:59;;;;;;;;;;;16.80;41.80;;;;;;8334932;28;19925;-45
2022/12/05 01:33:00;;;;;;;;;;;16.80;41.80;;;;;;8334749;28;19996;-45
2022/12/05 01:37:00;;;;;;;;;;;16.80;41.70;;;;;;8334097;28;19928;-45
2022/12/05 01:41:02;;;;;;;;;;;16.80;41.80;;;;;;8334341;28;20008;-44
2022/12/05 01:45:05;;;;;;;;;;;16.80;41.80;;;;;;8334483;28;20393;-44
2022/12/05 01:49:08;;;;;;;;;;;16.80;41.80;;;;;;8333651;28;20016;-44
2022/12/05 01:53:09;;;;;;;;;;;16.80;41.80;;;;;;8334222;28;19921;-43
2022/12/05 01:57:10;;;;;;;;;;;16.80;41.80;;;;;;8334094;28;19971;-44
2022/12/05 02:01:13;;;;;;;;;;;16.80;41.80;;;;;;8332467;28;20318;-44
2022/12/05 02:05:19;;;;;;;;;;;16.80;41.80;;;;;;8333637;28;20287;-44
2022/12/05 02:09:19;;;;;;;;;;;16.80;41.80;;;;;;8333630;28;20308;-45
2022/12/05 02:13:38;;;;;;;;;;;16.80;41.80;;;;;;8332977;28;19917;-44
2022/12/05 02:17:51;;;;;;;;;;;16.70;41.80;;;;;;8333228;28;19979;-44
2022/12/05 02:21:54;;;;;;;;;;;16.80;41.90;;;;;;8332833;28;20005;-44
2022/12/05 02:26:14;;;;;;;;;;;16.80;41.80;;;;;;8332951;28;20322;-44
2022/12/05 02:30:16;;;;;;;;;;;16.80;41.80;;;;;;8332818;28;19921;-44
2022/12/05 02:34:39;;;;;;;;;;;16.80;41.80;;;;;;8332697;28;19913;-45
2022/12/05 02:38:43;;;;;;;;;;;16.80;41.80;;;;;;8332939;28;19992;-44
2022/12/05 02:42:50;;;;;;;;;;;16.80;41.80;;;;;;8332145;28;19917;-45
2022/12/05 02:46:51;;;;;;;;;;;16.80;41.80;;;;;;8332361;28;19924;-44
2022/12/05 02:50:52;;;;;;;;;;;16.80;41.80;;;;;;8332179;28;19925;-44
2022/12/05 02:54:53;;;;;;;;;;;16.80;41.80;;;;;;8331954;28;19917;-44
2022/12/05 02:58:54;;;;;;;;;;;16.70;41.80;;;;;;8331141;28;19917;-44
2022/12/05 03:02:57;;;;;;;;;;;16.70;41.80;;;;;;8332086;28;20294;-44
2022/12/05 03:06:59;;;;;;;;;;;16.70;41.80;;;;;;8331860;28;20309;-44
2022/12/05 03:11:00;;;;;;;;;;;16.80;41.90;;;;;;8331637;28;20007;-44
2022/12/05 03:15:03;;;;;;;;;;;16.70;41.90;;;;;;8331852;28;20274;-45
2022/12/05 03:19:08;;;;;;;;;;;16.80;41.80;;;;;;8330972;28;19917;-44
2022/12/05 03:23:14;;;;;;;;;;;16.70;41.80;;;;;;8331427;28;19924;-44
2022/12/05 03:27:22;;;;;;;;;;;16.80;41.90;;;;;;8331168;28;19923;-44
2022/12/05 03:31:29;;;;;;;;;;;16.80;41.80;;;;;;8330536;28;20022;-44
2022/12/05 03:35:32;;;;;;;;;;;16.70;41.80;;;;;;8331470;28;19925;-44
2022/12/05 03:39:34;;;;;;;;;;;16.70;41.90;;;;;;8331116;28;20401;-44
2022/12/05 03:43:35;;;;;;;;;;;16.70;41.80;;;;;;8330256;28;20008;-44
2022/12/05 03:47:51;;;;;;;;;;;16.70;41.90;;;;;;8330568;28;19925;-44
2022/12/05 03:52:15;;;;;;;;;;;16.70;41.80;;;;;;8330068;28;19924;-45
2022/12/05 03:56:22;;;;;;;;;;;16.70;41.90;;;;;;8322269;28;19971;-44
2022/12/05 04:00:23;;;;;;;;;;;16.70;41.90;;;;;;8330538;28;19913;-44
2022/12/05 04:04:26;;;;;;;;;;;16.70;41.90;;;;;;8329958;28;19924;-45
2022/12/05 04:08:30;;;;;;;;;;;16.70;41.90;;;;;;8329684;28;19980;-44
2022/12/05 04:12:31;;;;;;;;;;;16.70;41.90;;;;;;8330519;28;19971;-44
2022/12/05 04:25:31;;;;;;;;;;;16.80;41.90;;;;;;8329778;28;19987;-45
2022/12/05 04:29:35;;;;;;;;;;;16.80;42.00;;;;;;8330264;28;19961;-44
2022/12/05 04:33:44;;;;;;;;;;;16.80;42.00;;;;;;8329907;28;19914;-45
2022/12/05 04:37:48;;;;;;;;;;;16.80;42.00;;;;;;8329556;28;19971;-45
2022/12/05 04:41:53;;;;;;;;;;;16.90;41.90;;;;;;8329804;28;19920;-44
2022/12/05 04:45:55;;;;;;;;;;;16.90;41.90;;;;;;8329505;28;19917;-43
2022/12/05 04:49:57;;;;;;;;;;;17.00;42.00;;;;;;8329513;28;19932;-43
2022/12/05 04:53:59;;;;;;;;;;;17.00;42.00;;;;;;8329508;28;19972;-44
2022/12/05 04:58:03;;;;;;;;;;;17.00;42.00;;;;;;8329081;28;19918;-44
2022/12/05 05:02:06;;;;;;;;;;;17.00;42.00;;;;;;8329313;28;19963;-44
2022/12/05 05:06:09;;;;;;;;;;;17.00;41.90;;;;;;8329722;28;19919;-45
2022/12/05 05:10:11;;;;;;;;;;;17.00;41.90;;;;;;8325446;28;19935;-45
2022/12/05 05:14:12;;;;;;;;;;;17.00;42.00;;;;;;8321477;28;20374;-44
2022/12/05 05:18:12;;;;;;;;;;;17.00;41.90;;;;;;8329101;28;19925;-44
2022/12/05 05:22:13;;;;;;;;;;;17.10;41.90;;;;;;8331333;28;19923;-46
2022/12/05 05:26:13;;;;;;;;;;;17.00;41.80;;;;;;8335429;28;19920;-44
2022/12/05 05:30:14;;;;;;;;;;;17.00;41.80;;;;;;8335008;28;19925;-45
2022/12/05 05:34:15;;;;;;;;;;;17.00;41.80;;;;;;8334520;28;19917;-45
2022/12/05 05:38:15;;;;;;;;;;;17.00;41.70;;;;;;8334752;28;19959;-44
2022/12/05 05:42:15;;;;;;;;;;;17.00;41.80;;;;;;8334557;28;19913;-45
2022/12/05 05:46:17;;;;;;;;;;;16.90;41.80;;;;;;8334590;28;19924;-45
2022/12/05 05:50:17;;;;;;;;;;;16.90;41.90;;;;;;8334356;28;19925;-43
2022/12/05 05:54:18;;;;;;;;;;;16.90;41.90;;;;;;8334236;28;19921;-45
2022/12/05 05:58:19;;;;;;;;;;;16.90;42.00;;;;;;8333641;28;20011;-45
2022/12/05 06:02:19;;;;;;;;;;;16.90;42.00;;;;;;8334181;28;19913;-45
2022/12/05 06:06:20;;;;;;;;;;;16.90;42.00;;;;;;8333902;28;19917;-45
2022/12/05 06:10:20;;;;;;;;;;;16.90;42.00;;;;;;8333051;28;20004;-46
2022/12/05 06:14:21;;;;;;;;;;;16.80;41.90;;;;;;8333602;28;19918;-45
2022/12/05 06:18:21;;;;;;;;;;;16.80;41.80;;;;;;8333420;28;19970;-44
2022/12/05 06:22:22;;;;;;;;;;;16.80;41.90;;;;;;8332900;28;19948;-44
2022/12/05 06:26:23;;;;;;;;;;;16.80;41.90;;;;;;8333663;28;19913;-44
2022/12/05 06:30:23;;;;;;;;;;;16.80;42.00;;;;;;8332981;28;19925;-45
2022/12/05 06:34:24;;;;;;;;;;;16.80;42.00;;;;;;8332328;28;19917;-44
2022/12/05 06:38:24;;;;;;;;;;;16.80;42.50;;;;;;8332595;28;19940;-44
2022/12/05 06:42:24;;;;;;;;;;;16.80;42.00;;;;;;8332627;28;19962;-44
2022/12/05 06:46:25;;;;;;;;;;;16.80;41.90;;;;;;8332170;28;19913;-44
2022/12/05 06:50:25;;;;;;;;;;;16.90;41.90;;;;;;8332742;28;19949;-44
2022/12/05 06:54:26;;;;;;;;;;;16.90;42.00;;;;;;8332344;28;19913;-44
2022/12/05 06:58:26;;;;;;;;;;;16.90;42.00;;;;;;8331796;28;19921;-45
2022/12/05 07:02:27;;;;;;;;;;;16.90;42.00;;;;;;8331820;28;19938;-44
2022/12/05 07:06:27;;;;;;;;;;;16.90;42.00;;;;;;8332115;28;20008;-44
2022/12/05 07:10:27;;;;;;;;;;;16.90;42.00;;;;;;8331015;28;19925;-44
2022/12/05 07:14:28;;;;;;;;;;;16.90;42.00;;;;;;8331675;28;19967;-44
2022/12/05 07:18:28;;;;;;;;;;;16.90;41.90;;;;;;8331392;28;20018;-42
2022/12/05 07:22:29;;;;;;;;;;;16.90;41.90;;;;;;8330964;28;19921;-43
2022/12/05 07:26:29;;;;;;;;;;;16.90;41.80;;;;;;8331491;28;19928;-44
2022/12/05 07:30:30;;;;;;;;;;;16.90;41.90;;;;;;8331119;28;20021;-43
2022/12/05 07:34:30;;;;;;;;;;;16.90;41.90;;;;;;8330638;28;19917;-43
2022/12/05 07:38:30;;;;;;;;;;;16.90;42.00;;;;;;8330964;28;19913;-43
2022/12/05 07:42:31;;;;;;;;;;;16.90;42.00;;;;;;8330885;28;19918;-43
2022/12/05 07:46:31;;;;;;;;;;;16.90;42.00;;;;;;8329968;28;20366;-43
2022/12/05 07:50:32;;;;;;;;;;;16.90;42.00;;;;;;8330390;28;19971;-44
2022/12/05 07:54:32;;;;;;;;;;;16.90;42.10;;;;;;8330497;28;19913;-43
2022/12/05 07:58:34;;;;;;;;;;;16.90;42.10;;;;;;8330064;28;19925;-44
2022/12/05 08:02:34;;;;;;;;;;;16.90;42.10;;;;;;8330443;28;19972;-45
2022/12/05 08:06:35;;;;;;;;;;;16.90;42.10;;;;;;8329330;28;19921;-43
2022/12/05 08:10:35;;;;;;;;;;;16.90;42.10;;;;;;8329426;28;19925;-46
2022/12/05 08:14:36;;;;;;;;;;;16.90;42.10;;;;;;8330253;28;19928;-43
2022/12/05 08:18:36;;;;;;;;;;;16.80;42.00;;;;;;8330203;28;19913;-44
2022/12/05 08:22:37;;;;;;;;;;;16.80;42.10;;;;;;8329405;28;19924;-44
2022/12/05 08:26:37;;;;;;;;;;;16.80;42.10;;;;;;8329854;28;19917;-44
2022/12/05 08:30:38;;;;;;;;;;;16.80;42.00;;;;;;8329267;28;19929;-43
2022/12/05 08:34:39;;;;;;;;;;;16.80;42.00;;;;;;8329995;28;20405;-45
2022/12/05 08:38:40;;;;;;;;;;;16.90;42.10;;;;;;8329608;28;19921;-44
2022/12/05 08:42:40;;;;;;;;;;;16.80;42.00;;;;;;8329049;28;19918;-44
2022/12/05 08:46:41;;;;;;;;;;;16.90;42.10;;;;;;8330003;28;19924;-47
2022/12/05 08:50:41;;;;;;;;;;;16.80;42.10;;;;;;8329240;28;19925;-44
2022/12/05 08:54:42;;;;;;;;;;;16.80;42.20;;;;;;8328775;28;19913;-44
2022/12/05 08:58:42;;;;;;;;;;;16.80;42.10;;;;;;8334696;28;19917;-45
2022/12/05 09:02:43;;;;;;;;;;;16.80;42.00;;;;;;8335452;28;19917;-44
2022/12/05 09:06:43;;;;;;;;;;;16.80;42.10;;;;;;8335328;28;19924;-44
2022/12/05 09:10:44;;;;;;;;;;;16.90;42.10;;;;;;8335057;28;19925;-44
2022/12/05 09:14:44;;;;;;;;;;;16.90;42.10;;;;;;8335062;28;19967;-44
2022/12/05 09:18:46;;;;;;;;;;;16.90;42.10;;;;;;8334776;28;19995;-44
2022/12/05 09:22:46;;;;;;;;;;;16.90;42.10;;;;;;8335017;28;19992;-44
2022/12/05 09:26:47;;;;;;;;;;;16.90;42.10;;;;;;8334590;28;20359;-44
2022/12/05 09:30:54;;;;;;;;;;;16.90;42.10;;;;;;8334103;28;19964;-45
2022/12/05 09:34:54;;;;;;;;;;;16.90;42.10;;;;;;8334844;28;19924;-46
2022/12/05 09:38:58;;;;;;;;;;;16.90;42.10;;;;;;8334387;28;19913;-44
2022/12/05 09:43:04;;;;;;;;;;;16.90;42.20;;;;;;8334006;28;19956;-44
2022/12/05 09:47:14;;;;;;;;;;;16.90;42.20;;;;;;8334553;28;20385;-45
2022/12/05 09:51:14;;;;;;;;;;;16.90;42.10;;;;;;8333849;28;19929;-46
2022/12/05 09:55:16;;;;;;;;;;;16.90;42.10;;;;;;8333225;28;19960;-44
2022/12/05 09:59:19;;;;;;;;;;;16.90;42.00;;;;;;8333922;28;19913;-44
2022/12/05 10:03:48;;;;;;;;;;;16.90;42.10;;;;;;8333617;28;19917;-44
2022/12/05 10:07:58;;;;;;;;;;;16.90;42.10;;;;;;8262749;28;19971;-44
2022/12/05 10:12:12;;;;;;;;;;;16.90;42.00;;;;;;8333223;28;19968;-44
2022/12/05 10:16:17;;;;;;;;;;;16.90;42.10;;;;;;8332365;28;19918;-46
2022/12/05 10:20:29;;;;;;;;;;;17.00;42.10;;;;;;8333119;28;20008;-47
2022/12/05 10:24:30;;;;;;;;;;;17.00;42.10;;;;;;8333059;28;19921;-43
2022/12/05 10:28:33;;;;;;;;;;;17.00;42.10;;;;;;8332375;28;19921;-45
2022/12/05 10:32:36;;;;;;;;;;;17.00;42.10;;;;;;8333110;28;20433;-44
2022/12/05 10:36:36;;;;;;;;;;;17.00;42.10;;;;;;8332732;28;20003;-44
2022/12/05 10:40:38;;;;;;;;;;;17.00;42.20;;;;;;8331869;28;19972;-44
2022/12/05 10:44:39;;;;;;;;;;;17.00;42.10;;;;;;8332291;28;19922;-45
2022/12/05 10:48:40;;;;;;;;;;;17.00;42.10;;;;;;8331735;28;20286;-43
2022/12/05 10:52:40;;;;;;;;;;;17.00;42.20;;;;;;8332175;28;19913;-45
2022/12/05 10:56:45;;;;;;;;;;;17.00;42.10;;;;;;8332009;28;20392;-44
2022/12/05 11:00:47;;;;;;;;;;;17.00;42.10;;;;;;8331299;28;19917;-44
2022/12/05 11:04:48;;;;;;;;;;;17.00;42.10;;;;;;8331734;28;20279;-45
2022/12/05 11:08:53;;;;;;;;;;;17.00;42.10;;;;;;8331910;28;19929;-44
2022/12/05 11:12:55;;;;;;;;;;;17.00;42.20;;;;;;8330538;28;19917;-45
2022/12/05 11:16:56;;;;;;;;;;;17.00;42.70;;;;;;8331618;28;19917;-47
2022/12/05 11:21:08;;;;;;;;;;;17.00;42.20;;;;;;8330665;28;19917;-45
2022/12/05 11:25:27;;;;;;;;;;;17.00;42.20;;;;;;8330566;28;19917;-44
2022/12/05 11:29:28;;;;;;;;;;;17.00;42.30;;;;;;8331294;28;19921;-43
2022/12/05 11:33:32;;;;;;;;;;;17.00;42.30;;;;;;8331255;28;19927;-44
2022/12/05 11:37:39;;;;;;;;;;;17.00;42.30;;;;;;8330358;28;19924;-44
2022/12/05 11:41:39;;;;;;;;;;;17.00;42.20;;;;;;8330831;28;19921;-44
2022/12/05 11:45:42;;;;;;;;;;;17.00;42.30;;;;;;8330140;28;19983;-47
2022/12/05 11:49:43;;;;;;;;;;;17.00;42.20;;;;;;8330771;28;20384;-44
2022/12/05 11:53:56;;;;;;;;;;;17.00;42.20;;;;;;8330608;28;19943;-45
2022/12/05 11:58:10;;;;;;;;;;;17.00;42.20;;;;;;8330113;28;20328;-45
2022/12/05 12:02:36;;;;;;;;;;;17.00;42.20;;;;;;8330673;28;19952;-44
2022/12/05 12:06:37;;;;;;;;;;;17.00;42.20;;;;;;8330020;28;20008;-45
2022/12/05 12:10:40;;;;;;;;;;;17.00;42.10;;;;;;8329532;28;19948;-45
2022/12/05 12:14:49;;;;;;;;;;;17.10;42.30;;;;;;8330109;28;19920;-44
2022/12/05 12:19:01;;;;;;;;;;;17.10;42.30;;;;;;8329776;28;19921;-45
2022/12/05 12:23:21;;;;;;;;;;;17.10;42.30;;;;;;8330028;28;19918;-44
2022/12/05 12:27:37;;;;;;;;;;;17.00;42.20;;;;;;8329958;28;20012;-44
2022/12/05 12:31:47;;;;;;;;;;;17.10;42.40;;;;;;8332793;28;20075;-44
2022/12/05 12:35:59;;;;;;;;;;;17.10;42.30;;;;;;8336363;28;19914;-47
2022/12/05 12:40:06;;;;;;;;;;;17.10;42.40;;;;;;8335726;28;20003;-44
2022/12/05 12:44:20;;;;;;;;;;;17.10;42.40;;;;;;8336258;28;19925;-44
2022/12/05 12:48:31;;;;;;;;;;;17.10;42.30;;;;;;8336210;28;20378;-44
2022/12/05 12:52:51;;;;;;;;;;;17.10;42.20;;;;;;8335363;28;19996;-44
2022/12/05 12:57:14;;;;;;;;;;;17.10;42.30;;;;;;8335763;28;19924;-44
2022/12/05 13:01:47;;;;;;;;;;;17.10;42.20;;;;;;8335139;28;19917;-43
2022/12/05 13:05:49;;;;;;;;;;;17.10;42.20;;;;;;8302006;28;19920;-45
2022/12/05 13:09:55;;;;;;;;;;;17.10;42.20;;;;;;8334664;28;19929;-43
2022/12/05 13:13:57;;;;;;;;;;;17.10;42.20;;;;;;8335419;28;19913;-43
2022/12/05 13:17:58;;;;;;;;;;;17.10;42.20;;;;;;8335216;28;19980;-44
2022/12/05 13:21:59;;;;;;;;;;;17.20;42.30;;;;;;8334493;28;19933;-43
2022/12/05 13:26:00;;;;;;;;;;;17.10;42.30;;;;;;8335162;28;19917;-43
2022/12/05 13:30:02;;;;;;;;;;;17.10;42.20;;;;;;8334862;28;19925;-44
2022/12/05 13:34:02;;;;;;;;;;;17.10;42.40;;;;;;8334473;28;19995;-44
2022/12/05 13:42:23;;;;;;;;;;;17.10;42.40;;;;;;8333638;28;20016;-44
2022/12/05 13:46:32;;;;;;;;;;;17.10;42.40;;;;;;8333799;28;19917;-43
2022/12/05 13:50:32;;;;;;;;;;;17.10;42.30;;;;;;8333968;28;20398;-44
2022/12/05 13:54:34;;;;;;;;;;;17.10;42.40;;;;;;8334228;28;19971;-44
2022/12/05 13:58:49;;;;;;;;;;;17.10;42.40;;;;;;8333298;28;19925;-43
2022/12/05 14:02:54;;;;;;;;;;;17.10;42.40;;;;;;8333834;28;19955;-44
2022/12/05 14:06:56;;;;;;;;;;;17.10;42.40;;;;;;8332073;28;19917;-44
2022/12/05 14:10:56;;;;;;;;;;;17.10;42.40;;;;;;8333760;28;19925;-44
2022/12/05 14:14:57;;;;;;;;;;;17.10;42.40;;;;;;8333358;28;19959;-43
2022/12/05 14:19:04;;;;;;;;;;;17.10;42.40;;;;;;8333042;28;19934;-43
2022/12/05 14:23:28;;;;;;;;;;;17.10;42.40;;;;;;8333308;28;19952;-43
2022/12/05 14:27:40;;;;;;;;;;;17.10;42.40;;;;;;8332826;28;20315;-44
2022/12/05 14:31:44;;;;;;;;;;;17.10;42.40;;;;;;8332933;28;19930;-44
2022/12/05 14:35:46;;;;;;;;;;;17.10;42.40;;;;;;8332669;28;19960;-44
2022/12/05 14:39:50;;;;;;;;;;;17.10;42.40;;;;;;8332240;28;19959;-44
2022/12/05 14:43:52;;;;;;;;;;;17.10;42.40;;;;;;8332813;28;20016;-43
2022/12/05 14:48:04;;;;;;;;;;;17.10;42.40;;;;;;8332269;28;19917;-46
2022/12/05 14:52:09;;;;;;;;;;;17.20;42.40;;;;;;8331491;28;19925;-45
2022/12/05 14:56:20;;;;;;;;;;;17.10;42.30;;;;;;8331850;28;20298;-44
2022/12/05 15:00:21;;;;;;;;;;;17.10;42.30;;;;;;8331712;28;19967;-44
2022/12/05 15:04:27;;;;;;;;;;;17.10;42.30;;;;;;8331527;28;19913;-45
2022/12/05 15:08:29;;;;;;;;;;;17.20;42.40;;;;;;8331495;28;19965;-44
2022/12/05 15:12:30;;;;;;;;;;;17.20;42.50;;;;;;8331418;28;19925;-45
2022/12/05 15:16:32;;;;;;;;;;;17.20;42.40;;;;;;8329565;28;19925;-45
2022/12/05 15:20:38;;;;;;;;;;;17.20;42.40;;;;;;8331242;28;22076;-44
2022/12/05 15:24:39;;;;;;;;;;;17.20;42.50;;;;;;8331048;28;20374;-44
2022/12/05 15:28:39;;;;;;;;;;;17.20;42.40;;;;;;8330768;28;19925;-45
2022/12/05 15:32:40;;;;;;;;;;;17.20;42.30;;;;;;8330889;28;19917;-44
2022/12/05 15:36:44;;;;;;;;;;;17.20;42.30;;;;;;8330257;28;20032;-45
2022/12/05 15:40:46;;;;;;;;;;;17.20;42.40;;;;;;8330505;28;20393;-45
2022/12/05 15:44:46;;;;;;;;;;;17.20;42.30;;;;;;8330962;28;20349;-44
2022/12/05 15:48:47;;;;;;;;;;;17.20;42.40;;;;;;8329842;28;19964;-44
2022/12/05 15:52:52;;;;;;;;;;;17.20;42.40;;;;;;8330633;28;19921;-45
2022/12/05 15:57:13;;;;;;;;;;;17.20;42.40;;;;;;8330128;28;20334;-45
2022/12/05 16:01:17;;;;;;;;;;;17.20;42.40;;;;;;8329394;28;19917;-45
2022/12/05 16:05:19;;;;;;;;;;;17.20;42.50;;;;;;8329956;28;20370;-45
2022/12/05 16:09:21;;;;;;;;;;;17.20;42.40;;;;;;8329821;28;20023;-44
2022/12/05 16:13:24;;;;;;;;;;;17.10;42.50;;;;;;8329431;28;19923;-45
2022/12/05 16:17:24;;;;;;;;;;;17.10;42.50;;;;;;8329718;28;19917;-45
2022/12/05 16:21:32;;;;;;;;;;;17.10;42.40;;;;;;8330047;28;20002;-44
2022/12/05 16:25:33;;;;;;;;;;;17.10;42.40;;;;;;8329371;28;19974;-45
2022/12/05 16:29:34;;;;;;;;;;;17.10;42.40;;;;;;8329796;28;20012;-45
2022/12/05 16:33:35;;;;;;;;;;;17.10;42.40;;;;;;8329519;28;19924;-45
2022/12/05 16:37:35;;;;;;;;;;;17.10;42.40;;;;;;8357864;28;19916;-45
2022/12/05 16:41:37;;;;;;;;;;;17.10;42.40;;;;;;8362234;28;19924;-44
2022/12/05 16:45:39;;;;;;;;;;;17.10;42.40;;;;;;8362530;28;19913;-44
2022/12/05 16:49:39;;;;;;;;;;;17.10;42.40;;;;;;8361960;28;20389;-45
2022/12/05 16:53:41;;;;;;;;;;;17.10;42.40;;;;;;8362040;28;19917;-45
2022/12/05 16:57:42;;;;;;;;;;;17.10;42.40;;;;;;8361827;28;19917;-44
2022/12/05 17:01:42;;;;;;;;;;;17.10;42.40;;;;;;8362321;28;19917;-45
2022/12/05 17:05:43;;;;;;;;;;;17.10;42.40;;;;;;8362450;28;19917;-46
2022/12/05 17:09:43;;;;;;;;;;;17.10;42.40;;;;;;8361724;28;19932;-45
2022/12/05 17:13:46;;;;;;;;;;;17.20;42.50;;;;;;8319317;28;20432;-46
2022/12/05 17:17:46;;;;;;;;;;;17.10;42.40;;;;;;8331135;28;19917;-45
2022/12/05 17:21:47;;;;;;;;;;;17.10;42.40;;;;;;8334548;28;19921;-45
2022/12/05 17:25:51;;;;;;;;;;;17.10;42.40;;;;;;8335283;28;19914;-45
2022/12/05 17:29:52;;;;;;;;;;;17.20;43.00;;;;;;8334601;28;19929;-44
2022/12/05 17:33:52;;;;;;;;;;;17.10;42.40;;;;;;8334049;28;20278;-45
2022/12/05 17:37:53;;;;;;;;;;;17.10;42.40;;;;;;8334687;28;19917;-44
2022/12/05 17:41:54;;;;;;;;;;;17.10;42.40;;;;;;8334256;28;19952;-45
2022/12/05 17:45:54;;;;;;;;;;;17.10;42.40;;;;;;8334074;28;19958;-44
2022/12/05 17:49:54;;;;;;;;;;;17.20;42.30;;;;;;8333922;28;20461;-44
2022/12/05 17:53:55;;;;;;;;;;;17.20;42.40;;;;;;8334309;28;19995;-44
2022/12/05 17:57:55;;;;;;;;;;;17.10;42.40;;;;;;8333859;28;20370;-44
2022/12/05 18:01:56;;;;;;;;;;;17.20;42.40;;;;;;8334156;28;19917;-45
2022/12/05 18:05:56;;;;;;;;;;;17.10;42.40;;;;;;8334266;28;19913;-44
2022/12/05 18:09:57;;;;;;;;;;;17.10;42.40;;;;;;8332941;28;19932;-44
2022/12/05 18:13:58;;;;;;;;;;;17.20;42.30;;;;;;8333616;28;20267;-46
2022/12/05 18:18:02;;;;;;;;;;;17.10;42.30;;;;;;8333301;28;19944;-44
2022/12/05 18:22:02;;;;;;;;;;;17.10;42.40;;;;;;8332811;28;20370;-44
2022/12/05 18:26:03;;;;;;;;;;;17.10;42.40;;;;;;8333297;28;19921;-43
2022/12/05 18:30:04;;;;;;;;;;;17.10;42.40;;;;;;8332481;28;19925;-44
2022/12/05 18:34:05;;;;;;;;;;;17.10;42.40;;;;;;8332301;28;20474;-45
2022/12/05 18:38:06;;;;;;;;;;;17.10;42.40;;;;;;8332659;28;19918;-43
2022/12/05 18:42:06;;;;;;;;;;;17.10;42.40;;;;;;8332345;28;19921;-45
2022/12/05 18:46:07;;;;;;;;;;;17.00;42.30;;;;;;8332290;28;20334;-44
2022/12/05 18:50:08;;;;;;;;;;;17.10;42.40;;;;;;8332458;28;19925;-44
2022/12/05 18:54:09;;;;;;;;;;;17.10;42.40;;;;;;8332398;28;19952;-44
2022/12/05 18:58:09;;;;;;;;;;;17.10;42.30;;;;;;8331547;28;19924;-44
2022/12/05 19:02:10;;;;;;;;;;;17.10;42.40;;;;;;8331935;28;19917;-45
2022/12/05 19:06:15;;;;;;;;;;;17.10;42.70;;;;;;8332019;28;20376;-43
2022/12/05 19:10:15;;;;;;;;;;;17.10;42.20;;;;;;8331095;28;19925;-45
2022/12/05 19:14:18;;;;;;;;;;;17.10;42.10;;;;;;8331575;28;19970;-44
2022/12/05 19:18:18;;;;;;;;;;;17.10;42.20;;;;;;8331485;28;19920;-44
2022/12/05 19:22:19;;;;;;;;;;;17.10;42.10;;;;;;8334827;28;20147;-44
2022/12/05 19:26:19;;;;;;;;;;;17.10;42.20;;;;;;8364556;28;19921;-44
2022/12/05 19:30:20;;;;;;;;;;;17.10;42.10;;;;;;8364149;28;20382;-44
2022/12/05 19:34:21;;;;;;;;;;;17.10;42.10;;;;;;8363515;28;19924;-44
2022/12/05 19:38:21;;;;;;;;;;;17.10;42.00;;;;;;8363732;28;19913;-44
2022/12/05 19:42:22;;;;;;;;;;;17.10;42.10;;;;;;8363066;28;20070;-45
2022/12/05 19:46:23;;;;;;;;;;;17.10;42.10;;;;;;8363191;28;20293;-44
2022/12/05 19:50:24;;;;;;;;;;;17.10;42.10;;;;;;8363857;28;19940;-43
2022/12/05 19:54:24;;;;;;;;;;;17.10;42.10;;;;;;8363513;28;19999;-43
2022/12/05 19:58:25;;;;;;;;;;;17.10;42.00;;;;;;8362770;28;19921;-43
2022/12/05 20:02:25;;;;;;;;;;;17.10;42.00;;;;;;8358157;28;19921;-43
2022/12/05 20:06:29;;;;;;;;;;;17.10;42.00;;;;;;8330321;28;19917;-43
2022/12/05 20:10:32;;;;;;;;;;;17.10;42.00;;;;;;8329620;28;20413;-43
2022/12/05 20:14:34;;;;;;;;;;;17.10;41.90;;;;;;8329467;28;20297;-43
2022/12/05 20:18:36;;;;;;;;;;;17.10;41.90;;;;;;8330027;28;19920;-43
2022/12/05 20:22:36;;;;;;;;;;;17.10;42.00;;;;;;8329304;28;19921;-43
2022/12/05 20:26:41;;;;;;;;;;;17.10;42.00;;;;;;8329994;28;19999;-43
2022/12/05 20:30:41;;;;;;;;;;;17.10;42.00;;;;;;8329351;28;19925;-42
2022/12/05 20:34:42;;;;;;;;;;;17.10;42.00;;;;;;8329683;28;20382;-43
2022/12/05 20:38:43;;;;;;;;;;;17.00;42.00;;;;;;8329589;28;19940;-43
2022/12/05 20:42:44;;;;;;;;;;;17.00;42.00;;;;;;8329276;28;19917;-43
2022/12/05 20:46:44;;;;;;;;;;;17.00;42.00;;;;;;8329983;28;19920;-43
2022/12/05 20:50:45;;;;;;;;;;;17.00;42.00;;;;;;8329833;28;19979;-43
2022/12/05 20:54:45;;;;;;;;;;;17.00;42.00;;;;;;8335633;28;20310;-43
2022/12/05 20:58:47;;;;;;;;;;;17.00;42.00;;;;;;8335817;28;19917;-43
2022/12/05 21:02:47;;;;;;;;;;;17.00;41.90;;;;;;8335630;28;20281;-42
2022/12/05 21:06:48;;;;;;;;;;;17.00;41.90;;;;;;8335274;28;19924;-43
2022/12/05 21:10:49;;;;;;;;;;;17.00;41.80;;;;;;8335246;28;19971;-43
2022/12/05 21:14:51;;;;;;;;;;;17.00;41.90;;;;;;8335156;28;19956;-43
2022/12/05 21:18:52;;;;;;;;;;;17.00;41.90;;;;;;8334758;28;20355;-43
2022/12/05 21:22:52;;;;;;;;;;;17.00;41.90;;;;;;8335119;28;20012;-43
2022/12/05 21:26:53;;;;;;;;;;;17.00;41.80;;;;;;8335242;28;20289;-43
2022/12/05 21:30:53;;;;;;;;;;;17.00;41.90;;;;;;8334229;28;20007;-44
2022/12/05 21:34:53;;;;;;;;;;;17.00;41.90;;;;;;8334887;28;20294;-42
2022/12/05 21:38:54;;;;;;;;;;;17.00;41.90;;;;;;8334506;28;20381;-42
2022/12/05 21:42:54;;;;;;;;;;;17.00;42.00;;;;;;8334214;28;19975;-43
2022/12/05 21:46:55;;;;;;;;;;;17.00;41.80;;;;;;8334432;28;19920;-43
2022/12/05 21:50:56;;;;;;;;;;;17.00;41.90;;;;;;8334069;28;20051;-43
2022/12/05 21:54:56;;;;;;;;;;;17.00;41.80;;;;;;8333710;28;19917;-42
2022/12/05 21:58:57;;;;;;;;;;;17.00;41.80;;;;;;8333995;28;19917;-43
2022/12/05 22:02:57;;;;;;;;;;;17.00;41.90;;;;;;8333308;28;20036;-42
2022/12/05 22:06:58;;;;;;;;;;;17.00;41.90;;;;;;8333404;28;19921;-43
2022/12/05 22:11:05;;;;;;;;;;;16.90;41.90;;;;;;8333750;28;20306;-43
2022/12/05 22:15:06;;;;;;;;;;;16.90;41.90;;;;;;8333562;28;19935;-42
2022/12/05 22:19:07;;;;;;;;;;;17.00;41.90;;;;;;8332984;28;20404;-44
2022/12/05 22:23:07;;;;;;;;;;;16.90;41.80;;;;;;8333128;28;19975;-43
2022/12/05 22:27:08;;;;;;;;;;;16.90;41.80;;;;;;8333415;28;20389;-43
2022/12/05 22:31:09;;;;;;;;;;;16.90;41.80;;;;;;8332337;28;20024;-42
2022/12/05 22:35:10;;;;;;;;;;;16.90;41.70;;;;;;8333177;28;20366;-43
2022/12/05 22:39:11;;;;;;;;;;;16.90;41.70;;;;;;8332980;28;19917;-43
2022/12/05 22:43:12;;;;;;;;;;;16.90;41.80;;;;;;8332059;28;19913;-43
2022/12/05 22:47:12;;;;;;;;;;;16.90;41.80;;;;;;8332955;28;19913;-45
2022/12/05 22:51:13;;;;;;;;;;;16.90;41.70;;;;;;8332172;28;20015;-43
2022/12/05 22:55:13;;;;;;;;;;;16.90;41.60;;;;;;8331772;28;20297;-43
2022/12/05 22:59:14;;;;;;;;;;;16.90;41.70;;;;;;8332210;28;19968;-43
2022/12/05 23:03:14;;;;;;;;;;;16.90;41.60;;;;;;8331218;28;19936;-43
2022/12/05 23:07:15;;;;;;;;;;;16.90;41.60;;;;;;8310550;28;20413;-42
2022/12/05 23:11:17;;;;;;;;;;;16.90;41.60;;;;;;8322769;28;19925;-44
2022/12/05 23:15:17;;;;;;;;;;;16.90;41.60;;;;;;8330881;28;19917;-43
2022/12/05 23:19:18;;;;;;;;;;;16.90;41.60;;;;;;8331449;28;19969;-43
2022/12/05 23:23:18;;;;;;;;;;;16.90;41.60;;;;;;8331695;28;19913;-42
2022/12/05 23:27:19;;;;;;;;;;;16.90;41.60;;;;;;8331290;28;20003;-42
2022/12/05 23:31:19;;;;;;;;;;;16.90;41.60;;;;;;8330605;28;20349;-43
2022/12/05 23:35:20;;;;;;;;;;;16.90;41.60;;;;;;8330950;28;20297;-42
2022/12/05 23:39:20;;;;;;;;;;;16.90;41.60;;;;;;8330924;28;20333;-43
2022/12/05 23:43:21;;;;;;;;;;;16.90;41.50;;;;;;8330496;28;19913;-43